New Fairfield, Connecticut
Current Conditions -  °F | °C
As of 6:53 PM on Sunday 21 Dec 2014 (Local Time) from KDXR Reporting Station
Haze Haze  
Wind Chill: 29°   Ceiling: 1000
Heat Index: 33°   Visibility: 5mi
Dew Point: 28°   Wind: 5mph
Humidity: 82%   Direction: 360°N
Pressure: 30.33"   Gusts: NA
Location:  41.47°N, 73.49°W
Report Text: KDXR 212353Z 36004KT 5SM HZ OVC010 01/M02 A3033 RMK AO2 SNB00E52 CIG 007V014 SLP273 P0000 60000 T00061022 10011 20000 51009
Loading
Personal Weather Stations






























Interactive Weather Map New forecast layout! Learn more

10-Day Weather Forecast

Advertisements
Track Severe Weather on mobile